Accueil
METAR-TAF:

METAR-TAF

Aéroports :

Aéroport exécutif Gatineau-Ottawa

Gatineau, Québec, Canada

latitude: 45-31N, longitude: 075-34W, altitude: 64 m

Observation

Le bulletin a été fait il y a 2 heures et 22 minutes, à 01:00 UTC
Vent 2 kt de nord/nord-est
Température 19°C
Humidité 88%
Pression 1015 hPa
Visibilité: 24.1 km
Nuages épars à une hauteur de 6500 ft

METAR: CYND 190100Z 03002KT 15SM SCT065 19/17 A2996 RMK SC3 LAST STFD OBS/NEXT 191100 UTC SLP148 DENSITY ALT 700FT

Heure: 23:22 (03:22 UTC)

Prévision

Le bulletin a été fait il y a 9 heures et 44 minutes, à 17:38 UTC
Prévision valable du 18 à 18 UTC au 19 à 01 UTC
Vent 8 kt de nord/nord-est
Visibilité: 10 km
Nuages fragmentés à une hauteur de 3000 ft
A partir de 18 à 2300 UTC
Vent 8 kt de nord
Visibilité: 10 km
Quelques nuages à une hauteur de 3000 ft

TAF: CYND 181738Z 1818/1901 02008KT P6SM BKN030 FM182300 35008KT P6SM FEW030 RMK NXT FCST WILL BE ISSUED AT 191245Z

Observations et prévisions météorologiques de plus de 4000 aéroports (messages METAR et TAF).

Les stations disponibles sont représentées par des disques jaunes et rouges sur la carte.

Passer la souris dessus pour voir le nom de la station.

Cliquer dessus pour voir les observations et prévisions météorologiques.

Pour changer de carte: cliquez sur les boutons verts avec une croix noire pour zoomer, sur le bouton vert avec un tiret pour effectuer un zoom arrière, ou sur les flèches vertes pour les cartes adjacentes.


METAR-TAF: